LGAL/AXD METAR and TAF weather

Enter ICAO airport designator
Station Type Date Time Source
LGAL METAR 2021/06/24 06:20 UTC NOAA

LGAL 240620Z 00000KT 9999 FEW030 25/22 Q1016


Station Type Date Time Source
LGAL Decoded METAR 2021/06/24 06:20 UTC NOAA

Alexandroupoli Airport , Greece (LGAL) 40-51N 025-55E 3M
Jun 24, 2021 - 02:20 AM EDT / 2021.06.24 0620 UTC
Wind: Calm:0
Visibility: greater than 7 mile(s):0
Sky conditions: mostly clear
Temperature: 77 F (25 C)
Dew Point: 71 F (22 C)
Relative Humidity: 83%
Pressure (altimeter): 30.00 in. Hg (1016 hPa)
ob: LGAL 240620Z 00000KT 9999 FEW030 25/22 Q1016
cycle: 6

Station Type Date Time Source
LGAL TAF 2012/09/21 03:06 UTC NOAA

TAF TAF LGAL 210200Z 2103/2115 03012G22KT 9999 FEW020 SCT070 PROB30
TEMPO 2103/2106 6000 RA SCT015 BKN030 PROB30

Example: see airport list